sensor_id;sensor_type;location;lat;lon;timestamp;P1;durP1;ratioP1;P2;durP2;ratioP2
36659;SDS011;22654;51.054;3.654;2022-12-13T09:36:03;31.50;;;21.60;;
36659;SDS011;22654;51.054;3.654;2022-12-13T09:38:31;33.05;;;21.40;;
36659;SDS011;22654;51.054;3.654;2022-12-13T09:43:52;27.13;;;21.02;;
36659;SDS011;22654;51.054;3.654;2022-12-13T09:46:33;34.42;;;21.30;;
36659;SDS011;22654;51.054;3.654;2022-12-13T09:49:03;31.47;;;21.60;;
36659;SDS011;22654;51.054;3.654;2022-12-13T09:51:37;30.43;;;21.87;;
36659;SDS011;22654;51.054;3.654;2022-12-13T09:54:02;33.53;;;21.20;;
36659;SDS011;22654;51.054;3.654;2022-12-13T09:56:34;30.95;;;20.30;;
36659;SDS011;22654;51.054;3.654;2022-12-13T09:59:00;30.23;;;18.10;;
36659;SDS011;22654;51.054;3.654;2022-12-13T10:01:27;38.85;;;26.52;;
36659;SDS011;22654;51.054;3.654;2022-12-13T10:03:53;31.05;;;21.42;;
36659;SDS011;22654;51.054;3.654;2022-12-13T10:06:24;27.88;;;20.10;;
36659;SDS011;22654;51.054;3.654;2022-12-13T10:08:56;29.40;;;20.45;;
36659;SDS011;22654;51.054;3.654;2022-12-13T10:13:56;37.67;;;21.75;;
36659;SDS011;22654;51.054;3.654;2022-12-13T10:16:32;32.90;;;20.60;;
36659;SDS011;22654;51.054;3.654;2022-12-13T10:19:16;27.85;;;17.65;;
36659;SDS011;22654;51.054;3.654;2022-12-13T10:21:48;26.35;;;18.38;;
36659;SDS011;22654;51.054;3.654;2022-12-13T10:24:17;22.85;;;16.08;;
36659;SDS011;22654;51.054;3.654;2022-12-13T10:26:57;26.15;;;17.05;;
36659;SDS011;22654;51.054;3.654;2022-12-13T10:32:30;23.40;;;16.73;;
36659;SDS011;22654;51.054;3.654;2022-12-13T10:34:59;57.28;;;18.65;;
36659;SDS011;22654;51.054;3.654;2022-12-13T10:37:35;29.00;;;19.42;;
36659;SDS011;22654;51.054;3.654;2022-12-13T10:40:01;24.85;;;16.42;;
36659;SDS011;22654;51.054;3.654;2022-12-13T10:42:28;27.00;;;18.30;;
36659;SDS011;22654;51.054;3.654;2022-12-13T10:45:08;28.83;;;19.35;;
36659;SDS011;22654;51.054;3.654;2022-12-13T10:47:39;25.90;;;16.67;;
36659;SDS011;22654;51.054;3.654;2022-12-13T10:50:16;23.55;;;17.70;;
36659;SDS011;22654;51.054;3.654;2022-12-13T10:52:50;23.70;;;16.95;;
36659;SDS011;22654;51.054;3.654;2022-12-13T10:55:30;24.02;;;17.50;;
36659;SDS011;22654;51.054;3.654;2022-12-13T10:58:04;24.77;;;17.10;;
36659;SDS011;22654;51.054;3.654;2022-12-13T11:00:35;22.17;;;15.63;;
36659;SDS011;22654;51.054;3.654;2022-12-13T11:03:04;20.52;;;15.32;;
36659;SDS011;22654;51.054;3.654;2022-12-13T11:05:32;22.95;;;16.27;;
36659;SDS011;22654;51.054;3.654;2022-12-13T11:10:37;24.67;;;16.08;;
36659;SDS011;22654;51.054;3.654;2022-12-13T11:13:04;22.20;;;16.38;;
36659;SDS011;22654;51.054;3.654;2022-12-13T11:15:33;20.92;;;15.43;;
36659;SDS011;22654;51.054;3.654;2022-12-13T11:18:06;20.85;;;15.20;;
36659;SDS011;22654;51.054;3.654;2022-12-13T11:20:46;25.38;;;16.67;;
36659;SDS011;22654;51.054;3.654;2022-12-13T11:23:27;23.25;;;16.67;;
36659;SDS011;22654;51.054;3.654;2022-12-13T11:26:24;21.08;;;15.75;;
36659;SDS011;22654;51.054;3.654;2022-12-13T11:31:59;22.83;;;15.65;;
36659;SDS011;22654;51.054;3.654;2022-12-13T11:34:50;22.20;;;17.13;;
36659;SDS011;22654;51.054;3.654;2022-12-13T11:37:53;21.38;;;17.30;;
36659;SDS011;22654;51.054;3.654;2022-12-13T11:40:40;20.88;;;14.70;;
36659;SDS011;22654;51.054;3.654;2022-12-13T11:45:48;20.88;;;15.38;;
36659;SDS011;22654;51.054;3.654;2022-12-13T11:50:49;25.80;;;17.00;;
36659;SDS011;22654;51.054;3.654;2022-12-13T11:56:15;26.80;;;16.85;;
36659;SDS011;22654;51.054;3.654;2022-12-13T12:01:08;23.85;;;15.63;;
36659;SDS011;22654;51.054;3.654;2022-12-13T12:03:48;25.05;;;16.00;;
36659;SDS011;22654;51.054;3.654;2022-12-13T12:06:20;22.77;;;15.27;;
36659;SDS011;22654;51.054;3.654;2022-12-13T12:08:55;22.42;;;15.55;;
36659;SDS011;22654;51.054;3.654;2022-12-13T12:11:34;23.60;;;15.50;;
36659;SDS011;22654;51.054;3.654;2022-12-13T12:14:09;20.80;;;15.70;;
36659;SDS011;22654;51.054;3.654;2022-12-13T12:17:00;22.05;;;16.17;;
36659;SDS011;22654;51.054;3.654;2022-12-13T12:19:37;23.48;;;15.93;;
36659;SDS011;22654;51.054;3.654;2022-12-13T12:22:20;25.25;;;17.25;;
36659;SDS011;22654;51.054;3.654;2022-12-13T12:30:48;51.33;;;29.35;;
36659;SDS011;22654;51.054;3.654;2022-12-13T12:33:29;21.95;;;16.38;;
36659;SDS011;22654;51.054;3.654;2022-12-13T12:45:44;25.30;;;16.60;;
36659;SDS011;22654;51.054;3.654;2022-12-13T12:48:26;20.70;;;15.23;;
36659;SDS011;22654;51.054;3.654;2022-12-13T12:51:01;23.13;;;16.08;;
36659;SDS011;22654;51.054;3.654;2022-12-13T12:59:19;23.60;;;15.48;;
36659;SDS011;22654;51.054;3.654;2022-12-13T13:02:00;23.88;;;15.68;;
36659;SDS011;22654;51.054;3.654;2022-12-13T13:04:57;22.83;;;14.57;;
36659;SDS011;22654;51.054;3.654;2022-12-13T13:07:52;19.58;;;15.13;;
36659;SDS011;22654;51.054;3.654;2022-12-13T13:10:23;19.15;;;14.02;;
36659;SDS011;22654;51.054;3.654;2022-12-13T13:12:50;27.15;;;16.52;;
36659;SDS011;22654;51.054;3.654;2022-12-13T13:18:00;21.52;;;16.17;;
36659;SDS011;22654;51.054;3.654;2022-12-13T13:20:26;24.92;;;16.25;;
36659;SDS011;22654;51.054;3.654;2022-12-13T13:22:56;25.33;;;15.40;;
36659;SDS011;22654;51.054;3.654;2022-12-13T13:28:05;19.98;;;16.02;;
36659;SDS011;22654;51.054;3.654;2022-12-13T13:31:01;23.27;;;15.82;;
36659;SDS011;22654;51.054;3.654;2022-12-13T13:33:43;22.40;;;15.63;;
36659;SDS011;22654;51.054;3.654;2022-12-13T13:36:46;22.02;;;16.20;;
36659;SDS011;22654;51.054;3.654;2022-12-13T13:39:18;27.75;;;17.42;;
36659;SDS011;22654;51.054;3.654;2022-12-13T13:42:21;26.25;;;16.67;;
36659;SDS011;22654;51.054;3.654;2022-12-13T13:44:52;22.80;;;15.85;;
36659;SDS011;22654;51.054;3.654;2022-12-13T13:47:39;26.35;;;17.85;;
36659;SDS011;22654;51.054;3.654;2022-12-13T13:58:57;24.20;;;16.92;;
36659;SDS011;22654;51.054;3.654;2022-12-13T14:21:58;23.38;;;15.63;;
36659;SDS011;22654;51.054;3.654;2022-12-13T14:30:26;24.40;;;16.92;;
36659;SDS011;22654;51.054;3.654;2022-12-13T14:32:53;21.92;;;16.38;;
36659;SDS011;22654;51.054;3.654;2022-12-13T14:35:22;22.45;;;17.40;;
36659;SDS011;22654;51.054;3.654;2022-12-13T14:38:05;27.08;;;18.38;;
36659;SDS011;22654;51.054;3.654;2022-12-13T14:43:30;24.70;;;16.20;;
36659;SDS011;22654;51.054;3.654;2022-12-13T14:46:01;24.35;;;16.83;;
36659;SDS011;22654;51.054;3.654;2022-12-13T14:48:35;23.30;;;15.85;;
36659;SDS011;22654;51.054;3.654;2022-12-13T14:53:53;22.67;;;16.60;;
36659;SDS011;22654;51.054;3.654;2022-12-13T14:56:19;26.50;;;15.88;;
36659;SDS011;22654;51.054;3.654;2022-12-13T14:58:59;21.73;;;15.45;;
36659;SDS011;22654;51.054;3.654;2022-12-13T15:04:16;23.30;;;15.38;;
36659;SDS011;22654;51.054;3.654;2022-12-13T15:06:45;24.15;;;15.93;;
36659;SDS011;22654;51.054;3.654;2022-12-13T15:09:18;24.52;;;14.25;;
36659;SDS011;22654;51.054;3.654;2022-12-13T15:11:44;24.60;;;15.10;;
36659;SDS011;22654;51.054;3.654;2022-12-13T15:14:14;23.52;;;15.70;;
36659;SDS011;22654;51.054;3.654;2022-12-13T15:16:50;22.67;;;15.93;;
36659;SDS011;22654;51.054;3.654;2022-12-13T15:19:23;22.88;;;16.10;;
36659;SDS011;22654;51.054;3.654;2022-12-13T15:21:59;22.38;;;16.10;;
36659;SDS011;22654;51.054;3.654;2022-12-13T15:24:32;28.02;;;17.05;;
36659;SDS011;22654;51.054;3.654;2022-12-13T15:27:16;28.20;;;18.17;;
36659;SDS011;22654;51.054;3.654;2022-12-13T15:29:44;27.45;;;17.48;;
36659;SDS011;22654;51.054;3.654;2022-12-13T15:32:12;24.30;;;16.27;;
36659;SDS011;22654;51.054;3.654;2022-12-13T15:34:47;25.13;;;17.00;;
36659;SDS011;22654;51.054;3.654;2022-12-13T15:39:51;25.42;;;16.58;;
36659;SDS011;22654;51.054;3.654;2022-12-13T15:42:27;26.30;;;16.85;;
36659;SDS011;22654;51.054;3.654;2022-12-13T15:45:05;25.38;;;16.40;;
36659;SDS011;22654;51.054;3.654;2022-12-13T15:47:44;25.25;;;16.75;;
36659;SDS011;22654;51.054;3.654;2022-12-13T15:53:00;25.17;;;15.68;;
36659;SDS011;22654;51.054;3.654;2022-12-13T15:55:32;28.02;;;17.63;;
36659;SDS011;22654;51.054;3.654;2022-12-13T15:58:00;29.38;;;18.70;;
36659;SDS011;22654;51.054;3.654;2022-12-13T16:00:27;25.58;;;17.35;;
36659;SDS011;22654;51.054;3.654;2022-12-13T16:02:54;30.85;;;19.40;;
36659;SDS011;22654;51.054;3.654;2022-12-13T16:05:38;27.23;;;17.77;;
36659;SDS011;22654;51.054;3.654;2022-12-13T16:08:26;27.60;;;18.65;;
36659;SDS011;22654;51.054;3.654;2022-12-13T16:10:55;26.40;;;16.40;;
36659;SDS011;22654;51.054;3.654;2022-12-13T16:13:29;29.77;;;19.45;;
36659;SDS011;22654;51.054;3.654;2022-12-13T16:18:52;28.77;;;18.23;;
36659;SDS011;22654;51.054;3.654;2022-12-13T16:21:21;26.63;;;17.00;;
36659;SDS011;22654;51.054;3.654;2022-12-13T16:23:46;27.42;;;17.45;;
36659;SDS011;22654;51.054;3.654;2022-12-13T16:26:13;29.30;;;19.80;;
36659;SDS011;22654;51.054;3.654;2022-12-13T16:28:41;40.50;;;24.05;;
36659;SDS011;22654;51.054;3.654;2022-12-13T16:31:20;38.17;;;22.88;;
36659;SDS011;22654;51.054;3.654;2022-12-13T16:33:48;39.05;;;23.33;;
36659;SDS011;22654;51.054;3.654;2022-12-13T16:36:14;37.95;;;22.90;;
36659;SDS011;22654;51.054;3.654;2022-12-13T16:38:40;34.50;;;21.15;;
36659;SDS011;22654;51.054;3.654;2022-12-13T16:41:06;33.72;;;22.00;;
36659;SDS011;22654;51.054;3.654;2022-12-13T16:43:33;32.92;;;22.10;;
36659;SDS011;22654;51.054;3.654;2022-12-13T16:46:04;38.85;;;21.33;;
36659;SDS011;22654;51.054;3.654;2022-12-13T16:48:30;33.72;;;22.48;;
36659;SDS011;22654;51.054;3.654;2022-12-13T16:50:56;39.95;;;22.02;;
36659;SDS011;22654;51.054;3.654;2022-12-13T16:53:22;33.55;;;21.80;;
36659;SDS011;22654;51.054;3.654;2022-12-13T16:55:48;35.92;;;23.00;;
36659;SDS011;22654;51.054;3.654;2022-12-13T16:58:15;33.78;;;21.33;;
36659;SDS011;22654;51.054;3.654;2022-12-13T17:00:43;35.35;;;21.40;;
36659;SDS011;22654;51.054;3.654;2022-12-13T17:03:10;35.55;;;23.33;;
36659;SDS011;22654;51.054;3.654;2022-12-13T17:05:38;39.60;;;23.77;;
36659;SDS011;22654;51.054;3.654;2022-12-13T17:08:07;34.72;;;22.42;;
36659;SDS011;22654;51.054;3.654;2022-12-13T17:13:03;36.63;;;21.98;;
36659;SDS011;22654;51.054;3.654;2022-12-13T17:15:29;40.35;;;25.67;;
36659;SDS011;22654;51.054;3.654;2022-12-13T17:17:55;45.40;;;24.70;;
36659;SDS011;22654;51.054;3.654;2022-12-13T17:20:21;36.90;;;22.83;;
36659;SDS011;22654;51.054;3.654;2022-12-13T17:22:47;31.35;;;22.50;;
36659;SDS011;22654;51.054;3.654;2022-12-13T17:25:13;37.45;;;24.27;;
36659;SDS011;22654;51.054;3.654;2022-12-13T17:27:39;32.45;;;22.33;;
36659;SDS011;22654;51.054;3.654;2022-12-13T17:30:06;34.05;;;21.83;;
36659;SDS011;22654;51.054;3.654;2022-12-13T17:32:34;36.28;;;23.05;;
36659;SDS011;22654;51.054;3.654;2022-12-13T17:35:01;35.67;;;22.90;;
36659;SDS011;22654;51.054;3.654;2022-12-13T17:37:29;40.58;;;23.63;;
36659;SDS011;22654;51.054;3.654;2022-12-13T17:39:56;38.42;;;22.38;;
36659;SDS011;22654;51.054;3.654;2022-12-13T17:42:22;32.78;;;21.23;;
36659;SDS011;22654;51.054;3.654;2022-12-13T17:44:48;36.38;;;20.90;;
36659;SDS011;22654;51.054;3.654;2022-12-13T17:47:14;38.30;;;24.20;;
36659;SDS011;22654;51.054;3.654;2022-12-13T17:49:40;36.95;;;22.63;;
36659;SDS011;22654;51.054;3.654;2022-12-13T17:52:06;35.80;;;22.33;;
36659;SDS011;22654;51.054;3.654;2022-12-13T17:54:32;49.47;;;30.35;;
36659;SDS011;22654;51.054;3.654;2022-12-13T17:56:58;42.65;;;28.98;;
36659;SDS011;22654;51.054;3.654;2022-12-13T17:59:25;78.82;;;55.58;;
36659;SDS011;22654;51.054;3.654;2022-12-13T18:01:52;47.08;;;30.60;;
36659;SDS011;22654;51.054;3.654;2022-12-13T18:04:18;50.30;;;31.65;;
36659;SDS011;22654;51.054;3.654;2022-12-13T18:06:45;43.45;;;26.20;;
36659;SDS011;22654;51.054;3.654;2022-12-13T18:09:11;42.33;;;26.58;;
36659;SDS011;22654;51.054;3.654;2022-12-13T18:11:37;65.97;;;36.55;;
36659;SDS011;22654;51.054;3.654;2022-12-13T18:14:04;47.35;;;28.70;;
36659;SDS011;22654;51.054;3.654;2022-12-13T18:16:31;43.28;;;28.02;;
36659;SDS011;22654;51.054;3.654;2022-12-13T18:18:58;48.83;;;31.27;;
36659;SDS011;22654;51.054;3.654;2022-12-13T18:21:25;40.35;;;28.33;;
36659;SDS011;22654;51.054;3.654;2022-12-13T18:23:51;47.15;;;34.45;;
36659;SDS011;22654;51.054;3.654;2022-12-13T18:26:18;40.28;;;24.92;;
36659;SDS011;22654;51.054;3.654;2022-12-13T18:28:44;39.10;;;25.40;;
36659;SDS011;22654;51.054;3.654;2022-12-13T18:31:12;36.70;;;24.85;;
36659;SDS011;22654;51.054;3.654;2022-12-13T18:33:41;39.50;;;25.10;;
36659;SDS011;22654;51.054;3.654;2022-12-13T18:36:07;40.30;;;25.88;;
36659;SDS011;22654;51.054;3.654;2022-12-13T18:38:34;41.22;;;26.35;;
36659;SDS011;22654;51.054;3.654;2022-12-13T18:41:22;45.10;;;27.27;;
36659;SDS011;22654;51.054;3.654;2022-12-13T18:44:00;43.08;;;26.70;;
36659;SDS011;22654;51.054;3.654;2022-12-13T18:46:29;44.83;;;26.95;;
36659;SDS011;22654;51.054;3.654;2022-12-13T18:48:56;43.30;;;26.75;;
36659;SDS011;22654;51.054;3.654;2022-12-13T18:51:23;45.53;;;27.83;;
36659;SDS011;22654;51.054;3.654;2022-12-13T18:53:50;41.75;;;28.00;;
36659;SDS011;22654;51.054;3.654;2022-12-13T18:56:16;40.67;;;26.95;;
36659;SDS011;22654;51.054;3.654;2022-12-13T18:58:42;46.28;;;28.85;;
36659;SDS011;22654;51.054;3.654;2022-12-13T19:01:11;48.15;;;28.55;;
36659;SDS011;22654;51.054;3.654;2022-12-13T19:03:38;47.30;;;27.67;;
36659;SDS011;22654;51.054;3.654;2022-12-13T19:06:04;46.53;;;27.58;;
36659;SDS011;22654;51.054;3.654;2022-12-13T19:08:31;50.28;;;29.92;;
36659;SDS011;22654;51.054;3.654;2022-12-13T19:10:58;42.28;;;27.48;;
36659;SDS011;22654;51.054;3.654;2022-12-13T19:13:25;42.78;;;26.58;;
36659;SDS011;22654;51.054;3.654;2022-12-13T19:15:54;46.90;;;29.92;;
36659;SDS011;22654;51.054;3.654;2022-12-13T19:18:21;46.70;;;29.95;;
36659;SDS011;22654;51.054;3.654;2022-12-13T19:20:51;48.88;;;29.35;;
36659;SDS011;22654;51.054;3.654;2022-12-13T19:23:17;48.13;;;31.17;;
36659;SDS011;22654;51.054;3.654;2022-12-13T19:25:44;57.65;;;33.53;;
36659;SDS011;22654;51.054;3.654;2022-12-13T19:28:11;58.53;;;44.13;;
36659;SDS011;22654;51.054;3.654;2022-12-13T19:30:38;51.10;;;34.08;;
36659;SDS011;22654;51.054;3.654;2022-12-13T19:33:08;56.47;;;36.42;;
36659;SDS011;22654;51.054;3.654;2022-12-13T19:35:34;43.50;;;29.05;;
36659;SDS011;22654;51.054;3.654;2022-12-13T19:38:00;49.35;;;33.72;;
36659;SDS011;22654;51.054;3.654;2022-12-13T19:40:26;49.38;;;34.05;;
36659;SDS011;22654;51.054;3.654;2022-12-13T19:42:52;42.42;;;28.92;;
36659;SDS011;22654;51.054;3.654;2022-12-13T19:45:18;46.00;;;29.17;;
36659;SDS011;22654;51.054;3.654;2022-12-13T19:47:44;56.17;;;37.28;;
36659;SDS011;22654;51.054;3.654;2022-12-13T19:50:10;52.08;;;33.22;;
36659;SDS011;22654;51.054;3.654;2022-12-13T19:52:36;53.65;;;33.70;;
36659;SDS011;22654;51.054;3.654;2022-12-13T19:55:03;53.30;;;30.52;;
36659;SDS011;22654;51.054;3.654;2022-12-13T19:57:33;47.75;;;30.35;;
36659;SDS011;22654;51.054;3.654;2022-12-13T19:59:59;43.78;;;26.92;;
36659;SDS011;22654;51.054;3.654;2022-12-13T20:02:25;46.42;;;27.95;;
36659;SDS011;22654;51.054;3.654;2022-12-13T20:04:52;45.75;;;27.90;;
36659;SDS011;22654;51.054;3.654;2022-12-13T20:07:18;43.90;;;28.80;;
36659;SDS011;22654;51.054;3.654;2022-12-13T20:09:44;43.50;;;26.48;;
36659;SDS011;22654;51.054;3.654;2022-12-13T20:12:10;41.33;;;26.43;;
36659;SDS011;22654;51.054;3.654;2022-12-13T20:14:36;39.45;;;26.33;;
36659;SDS011;22654;51.054;3.654;2022-12-13T20:17:02;40.88;;;25.02;;
36659;SDS011;22654;51.054;3.654;2022-12-13T20:19:28;38.72;;;25.20;;
36659;SDS011;22654;51.054;3.654;2022-12-13T20:21:54;41.03;;;26.00;;
36659;SDS011;22654;51.054;3.654;2022-12-13T20:24:19;36.22;;;24.65;;
36659;SDS011;22654;51.054;3.654;2022-12-13T20:26:45;42.70;;;26.77;;
36659;SDS011;22654;51.054;3.654;2022-12-13T20:29:11;41.03;;;25.70;;
36659;SDS011;22654;51.054;3.654;2022-12-13T20:31:38;36.97;;;24.40;;
36659;SDS011;22654;51.054;3.654;2022-12-13T20:34:04;43.20;;;25.08;;
36659;SDS011;22654;51.054;3.654;2022-12-13T20:36:34;39.70;;;24.33;;
36659;SDS011;22654;51.054;3.654;2022-12-13T20:39:04;35.83;;;24.92;;
36659;SDS011;22654;51.054;3.654;2022-12-13T20:41:31;38.75;;;24.13;;
36659;SDS011;22654;51.054;3.654;2022-12-13T20:43:59;38.17;;;25.55;;
36659;SDS011;22654;51.054;3.654;2022-12-13T20:46:26;36.78;;;22.67;;
36659;SDS011;22654;51.054;3.654;2022-12-13T20:48:54;38.75;;;24.00;;
36659;SDS011;22654;51.054;3.654;2022-12-13T20:51:23;34.83;;;21.98;;
36659;SDS011;22654;51.054;3.654;2022-12-13T20:53:50;40.85;;;26.92;;
36659;SDS011;22654;51.054;3.654;2022-12-13T20:56:19;42.33;;;26.08;;
36659;SDS011;22654;51.054;3.654;2022-12-13T20:58:46;41.75;;;28.10;;
36659;SDS011;22654;51.054;3.654;2022-12-13T21:01:14;46.00;;;25.98;;
36659;SDS011;22654;51.054;3.654;2022-12-13T21:03:41;37.13;;;24.13;;
36659;SDS011;22654;51.054;3.654;2022-12-13T21:06:07;39.17;;;23.80;;
36659;SDS011;22654;51.054;3.654;2022-12-13T21:08:33;39.92;;;26.65;;
36659;SDS011;22654;51.054;3.654;2022-12-13T21:11:17;44.63;;;25.50;;
36659;SDS011;22654;51.054;3.654;2022-12-13T21:13:58;35.92;;;21.92;;
36659;SDS011;22654;51.054;3.654;2022-12-13T21:16:37;37.40;;;25.17;;
36659;SDS011;22654;51.054;3.654;2022-12-13T21:19:08;38.13;;;25.15;;
36659;SDS011;22654;51.054;3.654;2022-12-13T21:21:35;38.60;;;23.60;;
36659;SDS011;22654;51.054;3.654;2022-12-13T21:24:01;38.40;;;24.33;;
36659;SDS011;22654;51.054;3.654;2022-12-13T21:26:28;38.38;;;25.13;;
36659;SDS011;22654;51.054;3.654;2022-12-13T21:29:01;34.17;;;22.52;;
36659;SDS011;22654;51.054;3.654;2022-12-13T21:31:29;34.90;;;20.95;;
36659;SDS011;22654;51.054;3.654;2022-12-13T21:33:55;41.47;;;24.60;;
36659;SDS011;22654;51.054;3.654;2022-12-13T21:36:24;36.35;;;23.08;;
36659;SDS011;22654;51.054;3.654;2022-12-13T21:38:55;37.75;;;24.02;;
36659;SDS011;22654;51.054;3.654;2022-12-13T21:41:29;34.20;;;21.90;;
36659;SDS011;22654;51.054;3.654;2022-12-13T21:43:55;36.80;;;22.77;;
36659;SDS011;22654;51.054;3.654;2022-12-13T21:46:22;36.10;;;23.40;;
36659;SDS011;22654;51.054;3.654;2022-12-13T21:48:52;39.20;;;24.23;;
36659;SDS011;22654;51.054;3.654;2022-12-13T21:51:20;35.03;;;23.92;;
36659;SDS011;22654;51.054;3.654;2022-12-13T21:53:47;36.42;;;26.25;;
36659;SDS011;22654;51.054;3.654;2022-12-13T21:56:15;36.63;;;22.05;;
36659;SDS011;22654;51.054;3.654;2022-12-13T21:59:01;37.90;;;23.93;;
36659;SDS011;22654;51.054;3.654;2022-12-13T22:04:37;32.70;;;23.50;;
36659;SDS011;22654;51.054;3.654;2022-12-13T22:07:04;35.25;;;24.42;;
36659;SDS011;22654;51.054;3.654;2022-12-13T22:09:31;38.93;;;22.97;;
36659;SDS011;22654;51.054;3.654;2022-12-13T22:11:57;33.23;;;21.90;;
36659;SDS011;22654;51.054;3.654;2022-12-13T22:14:23;33.20;;;21.80;;
36659;SDS011;22654;51.054;3.654;2022-12-13T22:16:50;33.70;;;21.73;;
36659;SDS011;22654;51.054;3.654;2022-12-13T22:19:16;34.93;;;23.47;;
36659;SDS011;22654;51.054;3.654;2022-12-13T22:21:42;35.70;;;22.67;;
36659;SDS011;22654;51.054;3.654;2022-12-13T22:24:09;34.17;;;21.33;;
36659;SDS011;22654;51.054;3.654;2022-12-13T22:26:37;33.60;;;22.77;;
36659;SDS011;22654;51.054;3.654;2022-12-13T22:29:03;34.38;;;21.77;;
36659;SDS011;22654;51.054;3.654;2022-12-13T22:31:30;31.73;;;21.60;;
36659;SDS011;22654;51.054;3.654;2022-12-13T22:33:56;41.10;;;24.20;;
36659;SDS011;22654;51.054;3.654;2022-12-13T22:36:22;34.07;;;23.20;;
36659;SDS011;22654;51.054;3.654;2022-12-13T22:38:49;37.63;;;24.60;;
36659;SDS011;22654;51.054;3.654;2022-12-13T22:41:15;34.57;;;21.63;;
36659;SDS011;22654;51.054;3.654;2022-12-13T22:43:42;39.03;;;23.80;;
36659;SDS011;22654;51.054;3.654;2022-12-13T22:46:11;34.87;;;23.00;;
36659;SDS011;22654;51.054;3.654;2022-12-13T22:48:38;35.67;;;22.90;;
36659;SDS011;22654;51.054;3.654;2022-12-13T22:51:05;35.50;;;22.70;;
36659;SDS011;22654;51.054;3.654;2022-12-13T22:53:34;37.70;;;23.10;;
36659;SDS011;22654;51.054;3.654;2022-12-13T22:56:04;35.92;;;22.10;;
36659;SDS011;22654;51.054;3.654;2022-12-13T22:58:36;31.23;;;21.80;;
36659;SDS011;22654;51.054;3.654;2022-12-13T23:01:09;33.45;;;21.45;;
36659;SDS011;22654;51.054;3.654;2022-12-13T23:03:43;36.58;;;22.75;;
36659;SDS011;22654;51.054;3.654;2022-12-13T23:08:40;35.83;;;21.43;;
36659;SDS011;22654;51.054;3.654;2022-12-13T23:11:07;31.67;;;20.85;;
36659;SDS011;22654;51.054;3.654;2022-12-13T23:13:53;37.20;;;20.40;;
36659;SDS011;22654;51.054;3.654;2022-12-13T23:16:21;36.70;;;21.92;;
36659;SDS011;22654;51.054;3.654;2022-12-13T23:18:48;28.38;;;19.70;;
36659;SDS011;22654;51.054;3.654;2022-12-13T23:21:14;31.77;;;18.95;;
36659;SDS011;22654;51.054;3.654;2022-12-13T23:23:41;30.00;;;19.58;;
36659;SDS011;22654;51.054;3.654;2022-12-13T23:26:17;35.35;;;19.92;;
36659;SDS011;22654;51.054;3.654;2022-12-13T23:28:48;31.65;;;20.13;;
36659;SDS011;22654;51.054;3.654;2022-12-13T23:31:19;31.80;;;19.17;;
36659;SDS011;22654;51.054;3.654;2022-12-13T23:33:46;30.00;;;19.77;;
36659;SDS011;22654;51.054;3.654;2022-12-13T23:36:14;29.97;;;19.97;;
36659;SDS011;22654;51.054;3.654;2022-12-13T23:38:43;31.37;;;20.00;;
36659;SDS011;22654;51.054;3.654;2022-12-13T23:41:11;36.93;;;20.70;;
36659;SDS011;22654;51.054;3.654;2022-12-13T23:43:39;33.27;;;20.87;;
36659;SDS011;22654;51.054;3.654;2022-12-13T23:46:07;29.00;;;19.08;;
36659;SDS011;22654;51.054;3.654;2022-12-13T23:48:34;34.03;;;21.27;;
36659;SDS011;22654;51.054;3.654;2022-12-13T23:51:02;28.08;;;19.42;;
36659;SDS011;22654;51.054;3.654;2022-12-13T23:53:29;32.20;;;19.67;;
36659;SDS011;22654;51.054;3.654;2022-12-13T23:55:56;30.90;;;20.40;;
36659;SDS011;22654;51.054;3.654;2022-12-13T23:58:23;31.05;;;19.58;;
